^^
Datos históricos de la estación: Murcia-Puente Tocinos
Diario Informe para Septiembre 27, 2021 Unidades:  Métrico    Ingés   Ambas
Diario Semanal Mensual Anual
  Máxima: Mínima: Promedio:
Temperatura: 32.2 °C 19.7 °C 24.8 °C
Punto de rocio: 17.1 °C 9.9 °C 14.5 °C
Humedad: 77% 27.7% 56%
Velocidad viento: 14.8km/h 0km/h 5.7km/h
Racha viento: 27.8km/h - -
Viento- - Sur
Presión: 1020.1 hPa 1016.9 hPa -
Precipitación: 0.0 mm    
 
 
Tabla de datos para Septiembre 27, 2021
Hora Temperatura Punto de rocio Presión Viento Velocidad viento Racha viento Humedad Intensidad lluvia(por hora) Nubes
00:04 22.8 °C 17.1 °C 1019.4 hPa NE 4.7 km/h 7.6 km/h 70% 0.0 mm
00:09 22.8 °C 17 °C 1019.4 hPa NE 4.7 km/h 5.8 km/h 70% 0.0 mm
00:14 22.7 °C 17 °C 1019.4 hPa NE 4.7 km/h 7.6 km/h 70.3% 0.0 mm
00:19 22.5 °C 17 °C 1019.4 hPa NE 4.8 km/h 9.3 km/h 71% 0.0 mm
00:24 22.4 °C 16.9 °C 1019.4 hPa NE 5 km/h 7.4 km/h 71% 0.0 mm
00:29 22.3 °C 16.9 °C 1019.2 hPa NE 4.6 km/h 5.6 km/h 71.6% 0.0 mm
00:34 22.3 °C 17 °C 1019.2 hPa NE 3.9 km/h 4.7 km/h 72% 0.0 mm
00:39 22.3 °C 17 °C 1019.3 hPa NE 3.6 km/h 5.6 km/h 72% 0.0 mm
00:44 22.2 °C 16.9 °C 1019.3 hPa NNE 2.9 km/h 5.6 km/h 72% 0.0 mm
00:49 22.2 °C 17 °C 1019.3 hPa NNE 3 km/h 5.6 km/h 72.7% 0.0 mm
00:54 22.1 °C 17.1 °C 1019.5 hPa NNE 3.2 km/h 5 km/h 73% 0.0 mm
00:59 21.9 °C 16.9 °C 1019.5 hPa NNE 3.2 km/h 5.8 km/h 73.1% 0.0 mm
01:04 21.9 °C 17.1 °C 1019.5 hPa NNE 3.2 km/h 3.9 km/h 74% 0.0 mm
01:09 21.9 °C 17 °C 1019.5 hPa NNE 3.1 km/h 5.6 km/h 74% 0.0 mm
01:14 21.8 °C 17 °C 1019.5 hPa NNE 2.9 km/h 6.9 km/h 74% 0.0 mm
01:19 21.8 °C 16.8 °C 1019.5 hPa ENE 3.2 km/h 7.4 km/h 73.2% 0.0 mm
01:24 21.7 °C 16.2 °C 1019.7 hPa ESE 3.9 km/h 7.4 km/h 71.4% 0.0 mm
01:29 21.5 °C 15.6 °C 1019.7 hPa ESE 3.9 km/h 7.4 km/h 69.5% 0.0 mm
01:34 21.4 °C 15.7 °C 1019.7 hPa ESE 3.9 km/h 4.7 km/h 70% 0.0 mm
01:39 21.4 °C 15.7 °C 1019.7 hPa ESE 3.6 km/h 4.7 km/h 69.8% 0.0 mm
01:44 21.5 °C 15.8 °C 1019.4 hPa ESE 2.9 km/h 4.7 km/h 70% 0.0 mm
01:49 21.5 °C 15.8 °C 1019.4 hPa ESE 2.7 km/h 3.7 km/h 70% 0.0 mm
01:54 21.5 °C 15.8 °C 1019.4 hPa ESE 2.3 km/h   70% 0.0 mm
01:59 21.4 °C 15.7 °C 1019.4 hPa ESE 1.5 km/h   70% 0.0 mm
02:04 21.4 °C 15.8 °C 1019.4 hPa Calm   4.7 km/h 70.5% 0.0 mm
02:09 21.4 °C 15.9 °C 1019.5 hPa ESE 0.8 km/h 3.9 km/h 71% 0.0 mm
02:14 21.3 °C 15.9 °C 1019.5 hPa ESE 2.3 km/h 4.7 km/h 71% 0.0 mm
02:19 21.2 °C 15.5 °C 1019.5 hPa ESE 2.3 km/h 3.9 km/h 70.2% 0.0 mm
02:24 21.1 °C 15.6 °C 1019.5 hPa ESE 2.3 km/h 2.3 km/h 70.9% 0.0 mm
02:29 21 °C 15.7 °C 1019.4 hPa ESE 2.3 km/h 7.4 km/h 71.8% 0.0 mm
02:34 21.1 °C 16.1 °C 1019.4 hPa ESE 2.3 km/h 5.8 km/h 73% 0.0 mm
02:39 21.1 °C 16.2 °C 1019.4 hPa ESE 2.6 km/h 3.9 km/h 73.6% 0.0 mm
02:44 21.1 °C 16.3 °C 1019.4 hPa ESE 3.2 km/h 4.7 km/h 74% 0.0 mm
02:49 21.1 °C 16.2 °C 1019.4 hPa ESE 2.9 km/h 5.6 km/h 73.8% 0.0 mm
02:54 21.1 °C 16.1 °C 1019.4 hPa SE 2.3 km/h 10.3 km/h 73% 0.0 mm
02:59 21 °C 15.8 °C 1019.4 hPa Sur 3.1 km/h 11.1 km/h 72% 0.0 mm
03:04 20.9 °C 15.4 °C 1019.4 hPa Sur 4.7 km/h 9.3 km/h 71% 0.0 mm
03:09 20.9 °C 15.3 °C 1019.4 hPa SSO 5 km/h 7.6 km/h 70.3% 0.0 mm
03:14 21.1 °C 15.3 °C 1019.3 hPa SO 5.8 km/h 7.6 km/h 69.5% 0.0 mm
03:19 21.2 °C 15.2 °C 1019.3 hPa OSO 5.4 km/h 7.6 km/h 69% 0.0 mm
03:24 21.2 °C 15.2 °C 1019.3 hPa SO 4.7 km/h 7.4 km/h 68.8% 0.0 mm
03:29 21.2 °C 15.1 °C 1019.2 hPa SO 4.4 km/h 7.4 km/h 68% 0.0 mm
03:34 21.3 °C 15.2 °C 1019.2 hPa SO 3.9 km/h 7.4 km/h 68% 0.0 mm
03:39 21.3 °C 15.2 °C 1019.2 hPa SO 3.9 km/h 5.8 km/h 68% 0.0 mm
03:44 21.3 °C 15.2 °C 1019.2 hPa SO 3.9 km/h 3.7 km/h 68% 0.0 mm
03:49 21.2 °C 15.1 °C 1019.2 hPa SO 2.6 km/h 1.9 km/h 68% 0.0 mm
03:54 21.2 °C 15.2 °C 1019.2 hPa Calm   7.6 km/h 68.7% 0.0 mm
03:59 21.1 °C 15.3 °C 1019.1 hPa SE 1.7 km/h 10 km/h 69.5% 0.0 mm
04:04 20.8 °C 15.4 °C 1019.1 hPa SE 4.7 km/h 7.4 km/h 70.8% 0.0 mm
04:09 20.7 °C 15.3 °C 1019.1 hPa SE 4.7 km/h 7.4 km/h 71.2% 0.0 mm
04:14 20.6 °C 15.2 °C 1018.9 hPa SSE 4.7 km/h 7.6 km/h 71.1% 0.0 mm
04:19 20.6 °C 15.1 °C 1018.9 hPa Sur 4.8 km/h 9.3 km/h 71.1% 0.0 mm
04:24 20.5 °C 15.1 °C 1019.0 hPa SSE 5 km/h 7.4 km/h 71% 0.0 mm
04:29 20.5 °C 15.1 °C 1019.0 hPa Sur 4.6 km/h 5.6 km/h 71% 0.0 mm
04:34 20.5 °C 15.1 °C 1019.0 hPa SSO 3.9 km/h 5.8 km/h 71% 0.0 mm
04:39 20.6 °C 15.2 °C 1019.0 hPa SSO 3.9 km/h 7.4 km/h 71% 0.0 mm
04:44 20.7 °C 15.2 °C 1019.0 hPa SSO 3.9 km/h 7.4 km/h 71% 0.0 mm
04:49 20.7 °C 15.3 °C 1019.0 hPa SSO 4.1 km/h 7.4 km/h 71% 0.0 mm
04:54 20.7 °C 15.4 °C 1019.0 hPa SO 4.7 km/h 7.4 km/h 71.9% 0.0 mm
04:59 20.7 °C 15.4 °C 1018.9 hPa Sur 4.7 km/h 8.4 km/h 72% 0.0 mm
05:04 20.7 °C 15.5 °C 1018.9 hPa Sur 4.7 km/h 9.5 km/h 72.2% 0.0 mm
05:09 20.6 °C 15.6 °C 1019.0 hPa Sur 5.3 km/h 9.3 km/h 73% 0.0 mm
05:14 20.5 °C 15.6 °C 1019.0 hPa Sur 6.4 km/h 7.6 km/h 73.4% 0.0 mm
05:19 20.4 °C 15.6 °C 1019.0 hPa Sur 6.2 km/h 9.3 km/h 74% 0.0 mm
05:24 20.3 °C 15.8 °C 1019.0 hPa SSO 5.8 km/h 7.6 km/h 75% 0.0 mm
05:29 20.3 °C 15.7 °C 1018.9 hPa SSO 5.8 km/h 7.6 km/h 75% 0.0 mm
05:34 20.2 °C 15.8 °C 1018.9 hPa SO 5.8 km/h 9.5 km/h 75.7% 0.0 mm
05:39 20.2 °C 15.8 °C 1019.0 hPa SO 5.8 km/h 11.1 km/h 76% 0.0 mm
05:44 20.2 °C 15.9 °C 1019.0 hPa SO 5.8 km/h 9.5 km/h 76.4% 0.0 mm
05:49 20.2 °C 16.1 °C 1019.0 hPa SO 5.8 km/h 9.3 km/h 77% 0.0 mm
05:54 20.2 °C 15.9 °C 1019.1 hPa SSO 5.8 km/h 9.3 km/h 76.4% 0.0 mm
05:59 20.2 °C 15.8 °C 1019.1 hPa SO 5.4 km/h 9.5 km/h 76% 0.0 mm
06:04 20.2 °C 15.7 °C 1019.1 hPa SSO 4.7 km/h 8.4 km/h 75.8% 0.0 mm
06:09 20.1 °C 15.6 °C 1019.1 hPa SSE 5 km/h 11.1 km/h 75% 0.0 mm
06:14 20.1 °C 15.5 °C 1019.0 hPa SSE 5.8 km/h 11.9 km/h 75% 0.0 mm
06:15 20 °C 15.4 °C 1019.0 hPa Sur 5.8 km/h 9.3 km/h 75% 0.0 mm
06:24 19.9 °C 15.4 °C 1019.0 hPa SSO 7.6 km/h 9.3 km/h 75.3% 0.0 mm
06:29 19.9 °C 15.6 °C 1019.0 hPa SSO 7.2 km/h 9.5 km/h 76% 0.0 mm
06:34 19.9 °C 15.6 °C 1019.0 hPa SSO 6.4 km/h 11.1 km/h 76% 0.0 mm
06:39 19.9 °C 15.6 °C 1019.1 hPa SO 6.2 km/h 9.3 km/h 76% 0.0 mm
06:44 20 °C 15.7 °C 1019.1 hPa SSO 5.8 km/h 11.9 km/h 76% 0.0 mm
06:49 20 °C 15.6 °C 1019.1 hPa SSO 5.8 km/h 11.1 km/h 76% 0.0 mm
06:54 19.9 °C 15.6 °C 1019.2 hPa Sur 5.8 km/h 10 km/h 76% 0.0 mm
06:59 19.9 °C 15.6 °C 1019.2 hPa SSO 6 km/h 9.5 km/h 76% 0.0 mm
07:04 19.8 °C 15.5 °C 1019.2 hPa SSO 6.4 km/h 9.3 km/h 76% 0.0 mm
07:09 19.8 °C 15.4 °C 1019.2 hPa SSO 6.2 km/h 11.1 km/h 76% 0.0 mm
07:14 19.8 °C 15.4 °C 1019.2 hPa SO 5.8 km/h 11.1 km/h 76% 0.0 mm
07:19 19.8 °C 15.4 °C 1019.2 hPa SO 5.8 km/h 8.4 km/h 76% 0.0 mm
07:24 19.8 °C 15.4 °C 1019.3 hPa SO 5.8 km/h 10 km/h 76% 0.0 mm
07:29 19.8 °C 15.4 °C 1019.3 hPa SO 5.8 km/h 9.5 km/h 76% 0.0 mm
07:34 19.7 °C 15.3 °C 1019.3 hPa SO 5.8 km/h 7.6 km/h 76% 0.0 mm
07:39 19.7 °C 15.3 °C 1019.3 hPa SO 5.4 km/h 9.3 km/h 76% 0.0 mm
07:44 19.7 °C 15.3 °C 1019.2 hPa OSO 4.7 km/h 7.4 km/h 76% 0.0 mm
07:49 19.7 °C 15.3 °C 1019.2 hPa SO 4.4 km/h 7.4 km/h 76% 0.0 mm
07:54 19.7 °C 15.3 °C 1019.3 hPa SO 3.9 km/h 7.4 km/h 76% 0.0 mm
07:59 19.7 °C 15.3 °C 1019.3 hPa Sur 4.2 km/h 7.4 km/h 76% 0.0 mm
08:04 19.7 °C 15.3 °C 1019.3 hPa Sur 4.7 km/h 7.6 km/h 76% 0.0 mm
08:09 19.7 °C 15.3 °C 1019.4 hPa SSO 4.8 km/h 8.4 km/h 76% 0.0 mm
08:14 19.7 °C 15.3 °C 1019.4 hPa SSO 5 km/h 8.4 km/h 76% 0.0 mm
08:19 19.7 °C 15.3 °C 1019.4 hPa SSO 5.3 km/h 10 km/h 76% 0.0 mm
08:24 19.7 °C 15.3 °C 1019.5 hPa SO 5.8 km/h 11.1 km/h 76% 0.0 mm
08:29 19.8 °C 15.4 °C 1019.5 hPa SO 6.2 km/h 11.1 km/h 75.9% 0.0 mm
08:34 19.8 °C 15.2 °C 1019.5 hPa OSO 6.9 km/h 9.5 km/h 75% 0.0 mm
08:39 19.8 °C 15.3 °C 1019.7 hPa SO 6.3 km/h 8.4 km/h 75.2% 0.0 mm
08:44 19.8 °C 15.2 °C 1019.7 hPa SO 5 km/h 8.4 km/h 75.1% 0.0 mm
08:49 19.8 °C 15.3 °C 1019.7 hPa OSO 4.9 km/h 8.4 km/h 75% 0.0 mm
08:54 19.9 °C 15.3 °C 1019.8 hPa OSO 4.7 km/h 9.5 km/h 75% 0.0 mm
08:59 19.8 °C 15.3 °C 1019.8 hPa OSO 5.3 km/h 9.5 km/h 75% 0.0 mm
09:04 19.9 °C 15.3 °C 1019.8 hPa SO 6.4 km/h 7.4 km/h 75% 0.0 mm
09:09 20.1 °C 15.4 °C 1019.8 hPa SSO 5.9 km/h 8.4 km/h 74.6% 0.0 mm
09:14 20.2 °C 15.3 °C 1019.8 hPa OSO 4.7 km/h 9.5 km/h 73.3% 0.0 mm
09:19 20.3 °C 15.3 °C 1019.8 hPa SO 4.8 km/h 9.3 km/h 73% 0.0 mm
09:24 20.5 °C 15.3 °C 1019.8 hPa SO 5 km/h 10 km/h 72% 0.0 mm
09:29 20.8 °C 15.5 °C 1019.8 hPa SSO 5.3 km/h 9.3 km/h 72% 0.0 mm
09:34 21 °C 15.6 °C 1019.8 hPa SSO 5.8 km/h 7.4 km/h 71.3% 0.0 mm
09:39 21.2 °C 15.7 °C 1019.9 hPa SSO 5.4 km/h 7.6 km/h 70.7% 0.0 mm
09:44 21.3 °C 15.5 °C 1019.9 hPa OSO 4.7 km/h 11.9 km/h 69.5% 0.0 mm
09:49 21.4 °C 15.1 °C 1019.9 hPa Oeste 5.3 km/h 11.1 km/h 67.5% 0.0 mm
09:54 21.4 °C 15 °C 1020.0 hPa Oeste 6.4 km/h 9.3 km/h 67% 0.0 mm
09:59 21.5 °C 15.1 °C 1020.0 hPa Oeste 6.4 km/h 11.1 km/h 67% 0.0 mm
10:04 21.5 °C 15.1 °C 1020.0 hPa OSO 6.4 km/h 9.3 km/h 67.1% 0.0 mm
10:09 21.6 °C 15.3 °C 1020.0 hPa Oeste 6.2 km/h 8.7 km/h 67.5% 0.0 mm
10:14 21.7 °C 15.3 °C 1019.9 hPa OSO 5.8 km/h 10 km/h 67.1% 0.0 mm
10:19 21.9 °C 15.5 °C 1019.9 hPa SO 5.5 km/h 9.3 km/h 67% 0.0 mm
10:24 22.2 °C 15.6 °C 1020.0 hPa NO 5 km/h 8.4 km/h 66% 0.0 mm
10:29 22.6 °C 15.5 °C 1020.0 hPa SO 4.4 km/h 9.5 km/h 64.5% 0.0 mm
10:34 22.8 °C 15.4 °C 1020.0 hPa SSO 3.2 km/h 9.5 km/h 63% 0.0 mm
10:39 22.8 °C 15.4 °C 1020.0 hPa OSO 4 km/h 12.2 km/h 63% 0.0 mm
10:44 22.9 °C 15.3 °C 1020.0 hPa OSO 5.8 km/h 13 km/h 62.5% 0.0 mm
10:49 23 °C 15.3 °C 1020.0 hPa OSO 6.2 km/h 11.9 km/h 61.9% 0.0 mm
10:54 23.1 °C 15.4 °C 1020.0 hPa Oeste 6.9 km/h 11.1 km/h 62% 0.0 mm
10:59 23.2 °C 15.3 °C 1020.0 hPa OSO 6.9 km/h 11.9 km/h 61.2% 0.0 mm
11:04 23.2 °C 15.2 °C 1020.0 hPa Oeste 6.9 km/h 8.4 km/h 60.5% 0.0 mm
11:09 23.3 °C 15.1 °C 1020.1 hPa OSO 6.1 km/h 8.4 km/h 60.1% 0.0 mm
11:14 23.6 °C 15.2 °C 1020.1 hPa SSO 4.7 km/h 8.4 km/h 59.4% 0.0 mm
11:19 23.8 °C 15.1 °C 1020.1 hPa SSE 4.8 km/h 11.9 km/h 58.3% 0.0 mm
11:24 24.1 °C 15 °C 1020.1 hPa Sur 5 km/h 11.9 km/h 57% 0.0 mm
11:29 24.2 °C 15.2 °C 1020.1 hPa SSO 5.6 km/h 11.1 km/h 57% 0.0 mm
11:34 24.3 °C 15.1 °C 1020.1 hPa Sur 6.9 km/h 13 km/h 56.5% 0.0 mm
11:39 24.4 °C 15.1 °C 1020.1 hPa Sur 6.8 km/h 11.1 km/h 56.2% 0.0 mm
11:44 24.7 °C 15.3 °C 1020.0 hPa Sur 6.4 km/h 11.1 km/h 55.9% 0.0 mm
11:49 24.8 °C 15.4 °C 1020.0 hPa SSO 6.4 km/h 11.1 km/h 55.7% 0.0 mm
11:54 25.1 °C 15.4 °C 1020.0 hPa Oeste 6.4 km/h 9.3 km/h 54.9% 0.0 mm
11:59 25.4 °C 15.3 °C 1020.0 hPa SO 5.8 km/h 11.1 km/h 53.6% 0.0 mm
12:04 25.5 °C 15.2 °C 1020.0 hPa OSO 4.7 km/h 11.1 km/h 53% 0.0 mm
12:09 25.7 °C 15.4 °C 1020.0 hPa Sur 4.8 km/h 7.4 km/h 53.1% 0.0 mm
12:14 25.9 °C 15 °C 1019.9 hPa OSO 5 km/h 11.1 km/h 51.1% 0.0 mm
12:19 25.9 °C 14.8 °C 1019.9 hPa ONO 5.2 km/h 9.3 km/h 50.3% 0.0 mm
12:24 26 °C 14.9 °C 1019.9 hPa OSO 5.8 km/h 9.5 km/h 50.5% 0.0 mm
12:29 26.2 °C 14.9 °C 1019.8 hPa SO 5.5 km/h 8.7 km/h 49.9% 0.0 mm
12:34 26.5 °C 15 °C 1019.8 hPa SO 5 km/h 9.3 km/h 49.1% 0.0 mm
12:39 26.8 °C 15.1 °C 1019.8 hPa Sur 4.6 km/h 8.4 km/h 48.9% 0.0 mm
12:44 27 °C 15.1 °C 1019.7 hPa ONO 3.9 km/h 10.3 km/h 48% 0.0 mm
12:49 27.1 °C 15.2 °C 1019.7 hPa Oeste 4.1 km/h 11.1 km/h 48% 0.0 mm
12:54 27.2 °C 15.3 °C 1019.7 hPa NO 4.7 km/h 7.4 km/h 48.1% 0.0 mm
12:59 27.4 °C 15.4 °C 1019.6 hPa Oeste 4.7 km/h 11.1 km/h 47.8% 0.0 mm
13:04 27.6 °C 15.5 °C 1019.6 hPa NNO 4.7 km/h 8.4 km/h 47.7% 0.0 mm
13:09 27.8 °C 15.5 °C 1019.6 hPa ONO 4.4 km/h 9.3 km/h 47% 0.0 mm
13:14 27.9 °C 15.4 °C 1019.6 hPa SO 3.9 km/h 10 km/h 46.6% 0.0 mm
13:19 28 °C 15.5 °C 1019.6 hPa Oeste 4.5 km/h 10 km/h 46.7% 0.0 mm
13:24 28.2 °C 15.4 °C 1019.6 hPa Oeste 5.8 km/h 9.5 km/h 45.9% 0.0 mm
13:29 28.3 °C 15.3 °C 1019.4 hPa OSO 5.5 km/h 7.6 km/h 45.3% 0.0 mm
13:34 28.3 °C 15.1 °C 1019.4 hPa NO 5 km/h 7.4 km/h 44.5% 0.0 mm
13:39 28.6 °C 15.3 °C 1019.4 hPa North 4.3 km/h 10 km/h 44.5% 0.0 mm
13:44 28.9 °C 15.2 °C 1019.2 hPa ESE 2.9 km/h 9.3 km/h 43.3% 0.0 mm
13:49 29.2 °C 15.2 °C 1019.2 hPa NE 3.6 km/h 8.7 km/h 42.6% 0.0 mm
13:54 29.2 °C 15.1 °C 1019.2 hPa ESE 5 km/h 11.1 km/h 42.3% 0.0 mm
13:59 29.2 °C 15 °C 1018.9 hPa SE 5.3 km/h 7.6 km/h 42.2% 0.0 mm
14:04 29.3 °C 14.7 °C 1018.9 hPa ESE 5.8 km/h 8.4 km/h 41% 0.0 mm
14:09 29.6 °C 15 °C 1018.9 hPa ESE 4.9 km/h 7.4 km/h 41.1% 0.0 mm
14:14 29.7 °C 14.7 °C 1018.8 hPa SSE 3.2 km/h 10 km/h 40% 0.0 mm
14:19 29.7 °C 14.9 °C 1018.8 hPa SSE 4.1 km/h 9.5 km/h 40.5% 0.0 mm
14:24 29.9 °C 14.5 °C 1018.8 hPa Sur 5.8 km/h 6.9 km/h 39.3% 0.0 mm
14:29 30.2 °C 14.3 °C 1018.5 hPa ESE 4.9 km/h 7.4 km/h 38% 0.0 mm
14:34 30.5 °C 14.2 °C 1018.5 hPa ONO 2.9 km/h 8.4 km/h 37.1% 0.0 mm
14:39 30.6 °C 13.8 °C 1018.5 hPa OSO 3.2 km/h 5.8 km/h 36% 0.0 mm
14:44 30.8 °C 14.4 °C 1018.3 hPa NO 3.9 km/h 7.4 km/h 36.9% 0.0 mm
14:45 30.9 °C 14.5 °C 1018.3 hPa NNO 3.9 km/h 6.9 km/h 37% 0.0 mm
14:54 30.7 °C 14.3 °C 1018.3 hPa North 4.7 km/h 11.9 km/h 36.8% 0.0 mm
14:59 30.6 °C 14 °C 1018.2 hPa NNO 5.1 km/h 9.3 km/h 36.3% 0.0 mm
15:04 30.6 °C 14.3 °C 1018.2 hPa NNO 5.8 km/h 8.4 km/h 37% 0.0 mm
15:09 30.7 °C 14.3 °C 1018.2 hPa ONO 5.1 km/h 7.6 km/h 37% 0.0 mm
15:14 30.9 °C 14.1 °C 1018.0 hPa ESE 3.9 km/h 9.5 km/h 36% 0.0 mm
15:19 31.1 °C 13.9 °C 1018.0 hPa ENE 4.5 km/h 13 km/h 35.1% 0.0 mm
15:24 30.9 °C 13.7 °C 1018.0 hPa North 5.8 km/h 11.1 km/h 35% 0.0 mm
15:29 31 °C 13.6 °C 1017.9 hPa ONO 5.5 km/h 8.4 km/h 34.8% 0.0 mm
15:34 31.2 °C 13.5 °C 1017.9 hPa ONO 5 km/h 8.4 km/h 34% 0.0 mm
15:39 31.5 °C 13.7 °C 1017.9 hPa OSO 4.9 km/h 9.5 km/h 34% 0.0 mm
15:44 31.7 °C 13.4 °C 1017.8 hPa Oeste 4.7 km/h 7.6 km/h 32.9% 0.0 mm
15:49 31.8 °C 12.6 °C 1017.8 hPa ESE 4.7 km/h 8.7 km/h 31.1% 0.0 mm
15:54 31.8 °C 12.6 °C 1017.8 hPa SE 4.7 km/h 11.1 km/h 31.1% 0.0 mm
15:59 31.7 °C 12.9 °C 1017.6 hPa SE 5.3 km/h 14.8 km/h 32% 0.0 mm
16:04 31.7 °C 12.9 °C 1017.6 hPa SSE 6.4 km/h 7.4 km/h 32% 0.0 mm
16:09 31.9 °C 12.9 °C 1017.6 hPa SSE 5.5 km/h 11.1 km/h 31.5% 0.0 mm
16:14 32 °C 13.4 °C 1017.5 hPa ENE 3.9 km/h 11.1 km/h 32.4% 0.0 mm
16:19 32.1 °C 12.4 °C 1017.5 hPa SSE 4.5 km/h 9.5 km/h 30.3% 0.0 mm
16:24 32.2 °C 11.9 °C 1017.5 hPa SSE 5.8 km/h 16.1 km/h 29% 0.0 mm
16:29 32 °C 11.7 °C 1017.4 hPa SE 7 km/h 18.5 km/h 28.9% 0.0 mm
16:34 31.9 °C 11.7 °C 1017.4 hPa ESE 9.5 km/h 20.9 km/h 29% 0.0 mm
16:39 31.8 °C 11.6 °C 1017.4 hPa ESE 10 km/h 20.4 km/h 29% 0.0 mm
16:44 31.8 °C 11.7 °C 1017.2 hPa SSE 11.1 km/h 14.8 km/h 29.3% 0.0 mm
16:49 31.9 °C 11.7 °C 1017.2 hPa SE 10.3 km/h 17.2 km/h 29% 0.0 mm
16:54 31.9 °C 11.5 °C 1017.3 hPa SE 8.7 km/h 18 km/h 28.7% 0.0 mm
16:59 31.9 °C 11.5 °C 1017.3 hPa SE 9.3 km/h 18.5 km/h 28.6% 0.0 mm
17:04 31.9 °C 11.2 °C 1017.3 hPa SE 10.3 km/h 24.1 km/h 28.1% 0.0 mm
17:09 31.7 °C 11 °C 1017.3 hPa ESE 11.5 km/h 24.1 km/h 28% 0.0 mm
17:14 31.7 °C 11 °C 1017.2 hPa ESE 14 km/h 20.4 km/h 28% 0.0 mm
17:19 31.7 °C 11 °C 1017.2 hPa SE 14 km/h 22.5 km/h 28% 0.0 mm
17:24 31.7 °C 10.8 °C 1017.2 hPa ESE 14 km/h 25.9 km/h 27.7% 0.0 mm
17:29 31.6 °C 10.9 °C 1017.2 hPa ESE 13.4 km/h 20.1 km/h 28.1% 0.0 mm
17:34 31.7 °C 11.1 °C 1017.2 hPa ESE 12.2 km/h 22.2 km/h 28.3% 0.0 mm
17:39 31.5 °C 11.1 °C 1017.2 hPa ESE 12.5 km/h 22.5 km/h 28.5% 0.0 mm
17:44 31.3 °C 11.2 °C 1017.2 hPa ESE 13 km/h 24.1 km/h 29.2% 0.0 mm
17:49 31.2 °C 11.6 °C 1017.2 hPa ESE 13 km/h 20.4 km/h 30.1% 0.0 mm
17:54 31.2 °C 11.5 °C 1017.2 hPa ESE 13 km/h 22.5 km/h 30% 0.0 mm
17:59 31 °C 11.4 °C 1017.1 hPa ESE 13.7 km/h 24.5 km/h 30% 0.0 mm
18:04 30.8 °C 11.4 °C 1017.1 hPa ESE 14.8 km/h 24.1 km/h 30.4% 0.0 mm
18:09 30.8 °C 11 °C 1017.1 hPa ESE 14.4 km/h 25.9 km/h 29.6% 0.0 mm
18:14 30.7 °C 10.7 °C 1017.1 hPa ESE 13.7 km/h 27.8 km/h 29.1% 0.0 mm
18:19 30.6 °C 10.6 °C 1017.1 hPa ESE 13.7 km/h 22.2 km/h 29% 0.0 mm
18:24 30.5 °C 10 °C 1017.1 hPa ESE 13.7 km/h 22.5 km/h 28.1% 0.0 mm
18:29 30.5 °C 9.9 °C 1017.0 hPa ESE 13.2 km/h 22.2 km/h 28% 0.0 mm
18:34 30.4 °C 9.9 °C 1017.0 hPa SE 12.2 km/h 22.5 km/h 28% 0.0 mm
18:39 30.3 °C 10.2 °C 1017.0 hPa SE 12.1 km/h 20.9 km/h 28.8% 0.0 mm
18:44 30.2 °C 10.4 °C 1016.9 hPa ESE 11.9 km/h 22.2 km/h 29.4% 0.0 mm
18:49 30.1 °C 10.8 °C 1016.9 hPa ESE 11.9 km/h 20.4 km/h 30.5% 0.0 mm
18:54 29.9 °C 11 °C 1017.1 hPa SE 11.9 km/h 17.2 km/h 31% 0.0 mm
18:59 29.8 °C 11.1 °C 1017.1 hPa SE 11.3 km/h 17.2 km/h 31.4% 0.0 mm
19:04 29.7 °C 11.2 °C 1017.1 hPa SE 10.3 km/h 16.7 km/h 32% 0.0 mm
19:09 29.5 °C 11.3 °C 1017.2 hPa ESE 10 km/h 16.7 km/h 32.5% 0.0 mm
19:14 29.4 °C 11.4 °C 1017.2 hPa SE 9.5 km/h 19 km/h 33% 0.0 mm
19:19 29.2 °C 11.6 °C 1017.2 hPa SE 9.5 km/h 17.2 km/h 33.8% 0.0 mm
19:24 29.1 °C 11.6 °C 1017.3 hPa SE 9.5 km/h 16.7 km/h 34% 0.0 mm
19:29 28.9 °C 11.2 °C 1017.3 hPa SE 9.8 km/h 18.5 km/h 33.4% 0.0 mm
19:34 28.8 °C 10.9 °C 1017.3 hPa SE 10.3 km/h 16.7 km/h 33% 0.0 mm
19:39 28.7 °C 10.6 °C 1017.6 hPa ESE 10.2 km/h 16.7 km/h 32.6% 0.0 mm
19:44 28.5 °C 10.3 °C 1017.6 hPa ESE 10 km/h 14.8 km/h 32.2% 0.0 mm
19:49 28.3 °C 10.1 °C 1017.6 hPa ESE 9 km/h 11.1 km/h 32% 0.0 mm
19:54 28.2 °C 10.2 °C 1017.7 hPa SE 6.9 km/h 9.5 km/h 32.7% 0.0 mm
19:59 28.1 °C 10.7 °C 1017.7 hPa SSO 6.5 km/h 7.6 km/h 33.8% 0.0 mm
20:04 28 °C 11.9 °C 1017.7 hPa SO 5.8 km/h 13 km/h 37% 0.0 mm
20:09 27.8 °C 12.2 °C 1017.9 hPa OSO 6 km/h 11.1 km/h 38% 0.0 mm
20:14 27.7 °C 12.6 °C 1017.9 hPa SO 6.4 km/h 11.1 km/h 39.2% 0.0 mm
20:19 27.5 °C 12.8 °C 1017.9 hPa SSO 6.2 km/h 11.1 km/h 40.3% 0.0 mm
20:24 27.3 °C 13 °C 1018.1 hPa SSO 5.8 km/h 10 km/h 41.1% 0.0 mm
20:29 27.2 °C 13.2 °C 1018.1 hPa SO 5.8 km/h 10 km/h 42.2% 0.0 mm
20:34 27.1 °C 13.4 °C 1018.1 hPa SO 5.8 km/h 9.3 km/h 43% 0.0 mm
20:39 26.9 °C 13.5 °C 1018.2 hPa SSE 5.1 km/h 7.4 km/h 43.5% 0.0 mm
20:44 26.8 °C 13.5 °C 1018.2 hPa Sur 3.9 km/h 4.7 km/h 44% 0.0 mm
20:49 26.8 °C 13.5 °C 1018.2 hPa Sur 3.3 km/h 3.9 km/h 44% 0.0 mm
20:54 26.7 °C 13.6 °C 1018.4 hPa Sur 2.3 km/h 4.7 km/h 44.6% 0.0 mm
20:59 26.6 °C 13.8 °C 1018.4 hPa OSO 2.5 km/h 7.4 km/h 45.4% 0.0 mm
21:04 26.3 °C 14 °C 1018.4 hPa ONO 2.9 km/h 5.6 km/h 46.5% 0.0 mm
21:09 26.2 °C 14 °C 1018.4 hPa ONO 3.2 km/h 4.7 km/h 47% 0.0 mm
21:14 26.1 °C 14.2 °C 1018.4 hPa ONO 3.9 km/h 7.4 km/h 47.9% 0.0 mm
21:19 25.9 °C 14 °C 1018.4 hPa Oeste 3.7 km/h 7.6 km/h 48% 0.0 mm
21:24 25.7 °C 13.9 °C 1018.7 hPa Oeste 3.2 km/h 10 km/h 48% 0.0 mm
21:29 25.5 °C 14 °C 1018.7 hPa OSO 4.1 km/h 9.3 km/h 49% 0.0 mm
21:34 25.4 °C 13.9 °C 1018.7 hPa OSO 5.8 km/h 8.4 km/h 49% 0.0 mm
21:39 25.3 °C 14 °C 1018.8 hPa OSO 5.5 km/h 7.4 km/h 49.6% 0.0 mm
21:44 25.3 °C 14.1 °C 1018.8 hPa OSO 5 km/h 5.8 km/h 50% 0.0 mm
21:49 25.3 °C 14.1 °C 1018.8 hPa OSO 4.3 km/h 3.9 km/h 50% 0.0 mm
21:54 25.2 °C 14.1 °C 1018.9 hPa OSO 2.9 km/h 4.7 km/h 50% 0.0 mm
21:59 25.1 °C 14.2 °C 1018.9 hPa OSO 2.9 km/h 3.9 km/h 50.8% 0.0 mm
22:04 25 °C 14.2 °C 1018.9 hPa OSO 2.9 km/h   51% 0.0 mm
22:09 24.9 °C 14.2 °C 1019.1 hPa OSO 1.9 km/h 5.6 km/h 51.4% 0.0 mm
22:14 24.8 °C 14.3 °C 1019.1 hPa Calm   5.6 km/h 52% 0.0 mm
22:19 24.7 °C 14.5 °C 1019.1 hPa OSO 0.8 km/h 6.9 km/h 53% 0.0 mm
22:24 24.7 °C 15.2 °C 1019.2 hPa SSO 2.3 km/h 9.5 km/h 55.7% 0.0 mm
22:29 24.6 °C 15.6 °C 1019.2 hPa Sur 3.4 km/h 9.3 km/h 57.5% 0.0 mm
22:34 24.4 °C 15.8 °C 1019.2 hPa Sur 5.8 km/h 9.5 km/h 58.7% 0.0 mm
22:39 24.3 °C 15.9 °C 1019.3 hPa Sur 6 km/h 9.5 km/h 59.7% 0.0 mm
22:44 24.2 °C 15.9 °C 1019.3 hPa SSE 6.4 km/h 10 km/h 60% 0.0 mm
22:49 24.1 °C 15.8 °C 1019.3 hPa Sur 6.4 km/h 7.6 km/h 60% 0.0 mm
22:54 24.1 °C 15.9 °C 1019.3 hPa SSO 6.4 km/h 8.4 km/h 60.3% 0.0 mm
22:59 24 °C 16.1 °C 1019.3 hPa SO 6.2 km/h 9.3 km/h 61.4% 0.0 mm
23:04 23.9 °C 16.2 °C 1019.3 hPa SO 5.8 km/h 7.4 km/h 62% 0.0 mm
23:09 23.9 °C 16.2 °C 1019.4 hPa Sur 5.4 km/h 7.6 km/h 62% 0.0 mm
23:10 23.9 °C 16.2 °C 1019.4 hPa SE 4.7 km/h 7.4 km/h 62% 0.0 mm
Murcia-Puente Tocinos, España
Compliments of Weather Underground - 2.75 mb

La estación de MeteoMurcia.com, publica sus datos en los siguientes proyectos:

Weather Underground PWS IMURCIAP2 Meteoclimatic www.awekas.at

W3Counter
Web Analytics